createdAt,value
2018-05-27T00:01:58.588Z,18.23
2018-05-27T00:04:28.925Z,18.73
2018-05-27T00:06:59.665Z,19.37
2018-05-27T00:09:29.685Z,19.00
2018-05-27T00:12:00.306Z,18.23
2018-05-27T00:14:30.672Z,17.13
2018-05-27T00:17:00.521Z,17.60
2018-05-27T00:19:30.322Z,21.00
2018-05-27T00:22:00.615Z,16.43
2018-05-27T00:24:30.837Z,17.90
2018-05-27T00:27:01.622Z,16.03
2018-05-27T00:29:32.004Z,17.17
2018-05-27T00:32:02.424Z,21.30
2018-05-27T00:34:32.486Z,16.87
2018-05-27T00:37:02.712Z,23.93
2018-05-27T00:39:32.857Z,17.67
2018-05-27T00:42:03.524Z,21.57
2018-05-27T00:44:33.655Z,16.83
2018-05-27T00:47:03.659Z,18.00
2018-05-27T00:49:33.972Z,25.20
2018-05-27T00:52:04.279Z,19.03
2018-05-27T00:54:34.530Z,23.47
2018-05-27T00:57:04.862Z,19.17
2018-05-27T00:59:35.205Z,22.80
2018-05-27T01:02:05.613Z,23.40
2018-05-27T01:04:36.134Z,21.60
2018-05-27T01:07:06.609Z,21.93
2018-05-27T01:09:37.267Z,27.87
2018-05-27T01:12:07.948Z,23.17
2018-05-27T01:14:38.147Z,25.10
2018-05-27T01:17:08.154Z,22.90
2018-05-27T01:19:38.929Z,26.83
2018-05-27T01:22:10.203Z,26.30
2018-05-27T01:24:40.377Z,24.00
2018-05-27T01:27:10.661Z,20.17
2018-05-27T01:29:41.236Z,19.37
2018-05-27T01:32:11.695Z,17.73
2018-05-27T01:34:42.356Z,22.53
2018-05-27T01:37:12.839Z,20.57
2018-05-27T01:39:43.305Z,24.10
2018-05-27T01:42:13.893Z,18.83
2018-05-27T01:44:43.837Z,27.17
2018-05-27T01:47:14.185Z,24.67
2018-05-27T01:49:44.855Z,27.30
2018-05-27T01:52:15.452Z,23.47
2018-05-27T01:54:45.996Z,21.67
2018-05-27T01:57:16.672Z,24.70
2018-05-27T01:59:47.036Z,24.03
2018-05-27T02:02:17.433Z,25.63
2018-05-27T02:04:47.639Z,27.23
2018-05-27T02:07:18.140Z,24.60
2018-05-27T02:09:48.574Z,26.50
2018-05-27T02:12:18.736Z,23.53
2018-05-27T02:14:49.446Z,26.20
2018-05-27T02:17:19.841Z,22.03
2018-05-27T02:19:50.323Z,21.23
2018-05-27T02:22:20.746Z,21.03
2018-05-27T02:24:51.219Z,22.37
2018-05-27T02:27:21.079Z,20.30
2018-05-27T02:29:51.830Z,24.33
2018-05-27T02:32:22.206Z,24.67
2018-05-27T02:34:52.928Z,19.87
2018-05-27T02:37:23.049Z,24.10
2018-05-27T02:39:53.727Z,24.53
2018-05-27T02:42:23.767Z,24.13
2018-05-27T02:44:54.415Z,18.77
2018-05-27T02:47:24.792Z,23.73
2018-05-27T02:49:54.578Z,26.33
2018-05-27T02:52:25.982Z,29.77
2018-05-27T02:54:56.188Z,21.10
2018-05-27T02:57:26.692Z,22.87
2018-05-27T02:59:57.552Z,21.17
2018-05-27T03:02:29.311Z,20.27
2018-05-27T03:04:59.789Z,18.53
2018-05-27T03:07:30.223Z,23.43
2018-05-27T03:10:00.549Z,18.97
2018-05-27T03:12:30.657Z,18.57
2018-05-27T03:15:00.400Z,23.50
2018-05-27T03:17:30.928Z,26.33
2018-05-27T03:20:00.737Z,32.07
2018-05-27T03:22:31.068Z,31.13
2018-05-27T03:25:01.635Z,23.73
2018-05-27T03:27:32.014Z,30.80
2018-05-27T03:30:02.628Z,31.10
2018-05-27T03:32:34.178Z,30.13
2018-05-27T03:35:04.639Z,31.93
2018-05-27T03:37:35.164Z,30.50
2018-05-27T03:40:04.958Z,29.93
2018-05-27T03:42:35.252Z,31.00
2018-05-27T03:45:05.505Z,33.07
2018-05-27T03:47:35.946Z,25.63
2018-05-27T03:50:06.387Z,26.40
2018-05-27T03:52:36.844Z,31.47
2018-05-27T03:55:07.298Z,25.33
2018-05-27T03:57:37.481Z,22.90
2018-05-27T04:00:07.723Z,23.90
2018-05-27T04:02:37.950Z,20.13
2018-05-27T04:05:19.386Z,21.73
2018-05-27T04:08:01.068Z,23.63
2018-05-27T04:10:30.888Z,23.67
2018-05-27T04:13:00.641Z,23.00
2018-05-27T04:15:30.484Z,24.93
2018-05-27T04:18:00.213Z,21.33
2018-05-27T04:20:30.055Z,20.57
2018-05-27T04:22:59.830Z,25.73
2018-05-27T04:25:29.574Z,18.20
2018-05-27T04:27:59.351Z,20.50
2018-05-27T04:30:29.120Z,21.50
2018-05-27T04:32:58.906Z,22.13
2018-05-27T04:35:28.739Z,19.63
2018-05-27T04:37:58.478Z,18.83
2018-05-27T04:40:28.287Z,19.40
2018-05-27T04:42:58.056Z,16.83
2018-05-27T04:48:09.625Z,15.90
2018-05-27T04:50:39.366Z,14.53
2018-05-27T04:53:09.199Z,14.73
2018-05-27T04:55:38.962Z,13.37
2018-05-27T04:58:08.737Z,11.80
2018-05-27T05:00:38.539Z,14.33
2018-05-27T05:03:08.290Z,14.53
2018-05-27T05:05:38.081Z,12.90
2018-05-27T05:08:07.796Z,15.23
2018-05-27T05:10:37.579Z,11.57
2018-05-27T05:13:07.467Z,11.07
2018-05-27T05:15:37.215Z,12.37
2018-05-27T05:18:07.007Z,12.30
2018-05-27T05:20:36.702Z,12.40
2018-05-27T05:23:06.453Z,10.47
2018-05-27T05:25:36.165Z,12.37
2018-05-27T05:28:05.940Z,15.20
2018-05-27T05:30:35.691Z,12.57
2018-05-27T05:33:05.471Z,12.87
2018-05-27T05:35:35.236Z,10.57
2018-05-27T05:38:05.046Z,9.67
2018-05-27T05:40:34.791Z,10.47
2018-05-27T05:43:04.499Z,11.80
2018-05-27T05:45:34.243Z,11.90
2018-05-27T05:48:03.977Z,10.17
2018-05-27T05:50:33.724Z,10.93
2018-05-27T05:53:03.574Z,12.03
2018-05-27T05:55:33.300Z,10.70
2018-05-27T05:58:03.090Z,11.50
2018-05-27T06:00:32.875Z,13.70
2018-05-27T06:03:02.656Z,12.23
2018-05-27T06:05:32.416Z,11.30
2018-05-27T06:08:02.144Z,13.67
2018-05-27T06:10:31.870Z,12.33
2018-05-27T06:13:01.642Z,11.80
2018-05-27T06:15:31.448Z,14.40
2018-05-27T06:18:01.240Z,10.27
2018-05-27T06:20:30.979Z,10.57
2018-05-27T06:23:00.707Z,14.00
2018-05-27T06:25:30.474Z,11.67
2018-05-27T06:28:00.201Z,12.33
2018-05-27T06:30:30.068Z,11.03
2018-05-27T06:32:59.887Z,11.90
2018-05-27T06:35:29.653Z,10.37
2018-05-27T06:37:59.411Z,14.30
2018-05-27T06:40:29.186Z,14.47
2018-05-27T06:42:59.007Z,12.30
2018-05-27T06:45:28.768Z,17.93
2018-05-27T06:47:58.542Z,19.63
2018-05-27T06:50:28.383Z,12.43
2018-05-27T06:52:58.098Z,11.07
2018-05-27T06:55:27.837Z,10.80
2018-05-27T06:57:57.573Z,11.10
2018-05-27T07:00:27.331Z,11.17
2018-05-27T07:02:57.155Z,9.60
2018-05-27T07:05:26.901Z,14.60
2018-05-27T07:07:56.640Z,9.10
2018-05-27T07:10:26.524Z,9.67
2018-05-27T07:12:56.257Z,10.67
2018-05-27T07:15:26.039Z,11.17
2018-05-27T07:17:55.825Z,11.73
2018-05-27T07:20:25.583Z,10.53
2018-05-27T07:22:55.355Z,10.03
2018-05-27T07:25:25.089Z,7.90
2018-05-27T07:27:54.877Z,9.47
2018-05-27T07:30:24.609Z,8.37
2018-05-27T07:32:54.319Z,8.23
2018-05-27T07:35:24.079Z,11.87
2018-05-27T07:37:53.813Z,8.93
2018-05-27T07:40:23.554Z,13.83
2018-05-27T07:42:53.402Z,9.80
2018-05-27T07:45:23.152Z,10.23
2018-05-27T07:47:52.906Z,9.47
2018-05-27T07:50:22.678Z,9.37
2018-05-27T07:52:52.497Z,8.50
2018-05-27T07:55:22.284Z,11.63
2018-05-27T07:57:52.051Z,10.60
2018-05-27T08:00:21.829Z,9.23
2018-05-27T08:02:51.573Z,11.57
2018-05-27T08:05:21.276Z,9.23
2018-05-27T08:07:51.042Z,11.37
2018-05-27T08:10:20.774Z,10.27
2018-05-27T08:12:50.514Z,8.77
2018-05-27T08:15:20.287Z,10.13
2018-05-27T08:17:50.127Z,7.70
2018-05-27T08:20:19.941Z,10.53
2018-05-27T08:22:49.690Z,13.20
2018-05-27T08:25:19.433Z,9.07
2018-05-27T08:27:49.203Z,11.00
2018-05-27T08:30:18.949Z,8.07
2018-05-27T08:32:48.785Z,10.70
2018-05-27T08:35:18.612Z,9.27
2018-05-27T08:37:48.354Z,9.00
2018-05-27T08:40:18.082Z,8.60
2018-05-27T08:42:47.821Z,8.37
2018-05-27T08:45:17.605Z,13.20
2018-05-27T08:47:47.379Z,10.40
2018-05-27T08:50:17.099Z,12.80
2018-05-27T08:52:46.881Z,11.30
2018-05-27T08:55:16.590Z,10.37
2018-05-27T08:57:46.329Z,11.33
2018-05-27T09:00:16.068Z,8.00
2018-05-27T09:02:45.829Z,10.83
2018-05-27T09:05:15.571Z,14.03
2018-05-27T09:07:45.284Z,11.30
2018-05-27T09:10:14.995Z,11.10
2018-05-27T09:12:44.781Z,9.67
2018-05-27T09:15:14.560Z,9.17
2018-05-27T09:17:44.306Z,10.10
2018-05-27T09:20:14.078Z,11.47
2018-05-27T09:22:43.839Z,8.63
2018-05-27T09:25:13.620Z,8.63
2018-05-27T09:27:43.342Z,10.03
2018-05-27T09:30:13.115Z,9.67
2018-05-27T09:32:42.842Z,11.40
2018-05-27T09:35:12.572Z,8.17
2018-05-27T09:37:42.316Z,9.20
2018-05-27T09:40:12.036Z,10.80
2018-05-27T09:42:41.857Z,14.13
2018-05-27T09:45:11.755Z,9.47
2018-05-27T09:47:41.476Z,8.53
2018-05-27T09:50:11.264Z,11.77
2018-05-27T09:52:41.080Z,8.43
2018-05-27T09:55:10.905Z,13.90
2018-05-27T09:57:40.675Z,15.03
2018-05-27T10:00:10.419Z,7.90
2018-05-27T10:02:40.178Z,10.00
2018-05-27T10:05:09.998Z,11.33
2018-05-27T10:07:39.795Z,11.87
2018-05-27T10:10:09.579Z,9.27
2018-05-27T10:12:39.281Z,8.60
2018-05-27T10:15:09.193Z,10.20
2018-05-27T10:17:38.987Z,7.73
2018-05-27T10:20:08.754Z,9.10
2018-05-27T10:22:38.502Z,11.63
2018-05-27T10:25:08.235Z,9.70
2018-05-27T10:27:37.994Z,10.37
2018-05-27T10:30:07.768Z,7.50
2018-05-27T10:32:37.560Z,12.30
2018-05-27T10:35:07.307Z,8.60
2018-05-27T10:37:37.097Z,10.80
2018-05-27T10:40:06.850Z,12.13
2018-05-27T10:42:36.629Z,7.07
2018-05-27T10:45:06.329Z,10.70
2018-05-27T10:47:36.091Z,6.80
2018-05-27T10:50:05.830Z,9.50
2018-05-27T10:52:35.597Z,8.77
2018-05-27T10:55:05.385Z,8.33
2018-05-27T10:57:35.136Z,12.13
2018-05-27T11:00:04.926Z,10.30
2018-05-27T11:02:34.687Z,12.63
2018-05-27T11:05:04.411Z,7.20
2018-05-27T11:07:34.194Z,8.27
2018-05-27T11:10:03.969Z,8.67
2018-05-27T11:12:33.716Z,11.20
2018-05-27T11:15:03.495Z,7.77
2018-05-27T11:17:33.228Z,10.00
2018-05-27T11:20:02.980Z,8.43
2018-05-27T11:22:32.705Z,8.17
2018-05-27T11:25:02.460Z,7.20
2018-05-27T11:27:32.212Z,6.53
2018-05-27T11:30:01.924Z,27.63
2018-05-27T11:32:31.662Z,8.97
2018-05-27T11:35:01.428Z,8.93
2018-05-27T11:37:31.162Z,8.73
2018-05-27T11:40:00.918Z,8.13
2018-05-27T11:42:30.645Z,6.43
2018-05-27T11:45:00.452Z,7.07
2018-05-27T11:47:30.239Z,6.50
2018-05-27T11:50:00.142Z,6.47
2018-05-27T11:52:29.909Z,9.33
2018-05-27T11:54:59.611Z,7.10
2018-05-27T11:57:29.325Z,7.30
2018-05-27T11:59:59.115Z,9.03
2018-05-27T12:02:28.860Z,8.60
2018-05-27T12:04:58.630Z,10.00
2018-05-27T12:07:28.381Z,8.97
2018-05-27T12:09:58.107Z,9.07
2018-05-27T12:12:27.858Z,10.50
2018-05-27T12:14:57.610Z,7.17
2018-05-27T12:17:27.336Z,9.27
2018-05-27T12:19:57.311Z,9.83
2018-05-27T12:22:27.039Z,7.43
2018-05-27T12:24:56.804Z,10.50
2018-05-27T12:27:26.669Z,13.17
2018-05-27T12:29:56.473Z,13.00
2018-05-27T12:32:26.239Z,8.87
2018-05-27T12:34:55.962Z,8.77
2018-05-27T12:37:25.717Z,7.20
2018-05-27T12:39:55.453Z,8.47
2018-05-27T12:42:25.299Z,10.73
2018-05-27T12:44:55.060Z,11.03
2018-05-27T12:47:24.764Z,9.23
2018-05-27T12:49:54.493Z,9.33
2018-05-27T12:52:24.246Z,10.90
2018-05-27T12:54:53.970Z,7.20
2018-05-27T12:57:23.758Z,7.47
2018-05-27T12:59:53.540Z,10.80
2018-05-27T13:02:23.253Z,7.60
2018-05-27T13:04:53.034Z,12.73
2018-05-27T13:07:22.798Z,5.63
2018-05-27T13:09:52.601Z,9.90
2018-05-27T13:12:22.441Z,9.50
2018-05-27T13:14:52.504Z,12.27
2018-05-27T13:17:22.224Z,14.90
2018-05-27T13:19:51.970Z,8.93
2018-05-27T13:22:21.756Z,9.57
2018-05-27T13:24:51.449Z,6.40
2018-05-27T13:27:21.209Z,9.10
2018-05-27T13:29:51.135Z,7.50
2018-05-27T13:32:20.866Z,9.27
2018-05-27T13:34:50.652Z,5.87
2018-05-27T13:37:20.489Z,11.10
2018-05-27T13:39:50.227Z,11.03
2018-05-27T13:42:20.003Z,8.63
2018-05-27T13:44:49.720Z,8.47
2018-05-27T13:47:19.486Z,7.23
2018-05-27T13:49:49.249Z,8.50
2018-05-27T13:52:18.991Z,7.47
2018-05-27T13:54:48.758Z,7.53
2018-05-27T13:57:18.459Z,9.80
2018-05-27T13:59:48.161Z,9.73
2018-05-27T14:02:17.988Z,7.47
2018-05-27T14:04:47.810Z,11.20
2018-05-27T14:07:17.586Z,13.73
2018-05-27T14:09:47.333Z,9.80
2018-05-27T14:12:17.106Z,8.93
2018-05-27T14:14:46.861Z,12.67
2018-05-27T14:17:16.624Z,7.93
2018-05-27T14:19:46.374Z,6.17
2018-05-27T14:22:16.139Z,7.13
2018-05-27T14:24:45.845Z,8.23
2018-05-27T14:27:15.599Z,6.07
2018-05-27T14:29:45.311Z,6.93
2018-05-27T14:32:15.030Z,8.07
2018-05-27T14:34:44.775Z,6.70
2018-05-27T14:37:14.482Z,7.43
2018-05-27T14:39:44.226Z,12.47
2018-05-27T14:42:13.975Z,9.03
2018-05-27T14:44:43.700Z,12.60
2018-05-27T14:47:13.475Z,8.37
2018-05-27T14:49:43.179Z,6.50
2018-05-27T14:52:12.876Z,10.57
2018-05-27T14:54:42.738Z,8.00
2018-05-27T14:57:17.339Z,8.57
2018-05-27T14:59:47.058Z,9.67
2018-05-27T15:02:16.757Z,7.87
2018-05-27T15:04:46.469Z,10.00
2018-05-27T15:07:16.398Z,7.60
2018-05-27T15:09:46.112Z,11.87
2018-05-27T15:12:15.855Z,7.93
2018-05-27T15:14:45.610Z,8.40
2018-05-27T15:17:15.344Z,7.63
2018-05-27T15:19:45.132Z,5.70
2018-05-27T15:22:14.819Z,5.87
2018-05-27T15:24:44.509Z,5.10
2018-05-27T15:27:14.281Z,5.77
2018-05-27T15:29:44.008Z,9.27
2018-05-27T15:32:13.822Z,6.03
2018-05-27T15:34:43.554Z,10.47
2018-05-27T15:37:13.253Z,7.03
2018-05-27T15:39:43.024Z,8.57
2018-05-27T15:42:12.740Z,10.67
2018-05-27T15:44:42.452Z,5.73
2018-05-27T15:47:12.207Z,7.63
2018-05-27T15:49:41.925Z,8.70
2018-05-27T15:52:11.630Z,8.70
2018-05-27T15:54:41.369Z,7.60
2018-05-27T15:57:11.047Z,7.40
2018-05-27T15:59:40.767Z,8.33
2018-05-27T16:02:10.509Z,5.73
2018-05-27T16:04:40.229Z,7.20
2018-05-27T16:07:09.998Z,13.57
2018-05-27T16:09:39.715Z,6.87
2018-05-27T16:12:09.434Z,7.87
2018-05-27T16:14:39.171Z,6.50
2018-05-27T16:17:08.942Z,8.23
2018-05-27T16:19:38.661Z,10.90
2018-05-27T16:22:08.375Z,7.60
2018-05-27T16:24:38.089Z,9.07
2018-05-27T16:27:07.873Z,8.13
2018-05-27T16:29:37.570Z,8.50
2018-05-27T16:32:07.298Z,7.43
2018-05-27T16:34:37.045Z,11.23
2018-05-27T16:37:06.833Z,9.27
2018-05-27T16:39:36.552Z,9.57
2018-05-27T16:42:06.348Z,11.50
2018-05-27T16:44:37.190Z,10.07
2018-05-27T16:47:07.063Z,8.03
2018-05-27T16:49:38.384Z,11.67
2018-05-27T16:52:09.123Z,12.43
2018-05-27T16:54:39.176Z,10.30
2018-05-27T16:57:09.392Z,11.17
2018-05-27T16:59:39.832Z,11.27
2018-05-27T17:02:09.993Z,14.20
2018-05-27T17:04:40.392Z,9.87
2018-05-27T17:07:11.469Z,9.70
2018-05-27T17:09:42.049Z,9.47
2018-05-27T17:12:12.202Z,8.87
2018-05-27T17:14:42.291Z,12.83
2018-05-27T17:17:13.249Z,10.83
2018-05-27T17:19:43.659Z,10.83
2018-05-27T17:22:14.572Z,11.43
2018-05-27T17:24:45.406Z,11.53
2018-05-27T17:27:16.942Z,11.23
2018-05-27T17:29:47.386Z,11.80
2018-05-27T17:32:17.319Z,14.00
2018-05-27T17:34:49.504Z,10.47
2018-05-27T17:37:20.248Z,14.63
2018-05-27T17:39:50.644Z,14.37
2018-05-27T17:42:21.108Z,13.40
2018-05-27T17:44:51.532Z,14.33
2018-05-27T17:47:21.976Z,13.43
2018-05-27T17:49:52.411Z,13.50
2018-05-27T17:52:22.883Z,14.20
2018-05-27T17:54:53.369Z,12.40
2018-05-27T17:57:23.954Z,14.80
2018-05-27T17:59:54.069Z,13.00
2018-05-27T18:02:24.003Z,15.67
2018-05-27T18:04:54.716Z,15.30
2018-05-27T18:07:25.680Z,17.50
2018-05-27T18:09:55.878Z,11.37
2018-05-27T18:12:26.359Z,14.67
2018-05-27T18:14:57.313Z,13.83
2018-05-27T18:17:27.972Z,14.10
2018-05-27T18:19:58.762Z,13.87
2018-05-27T18:22:30.111Z,16.63
2018-05-27T18:25:00.994Z,13.17
2018-05-27T18:27:31.256Z,16.93
2018-05-27T18:30:01.279Z,13.53
2018-05-27T18:32:32.244Z,13.20
2018-05-27T18:35:02.474Z,14.03
2018-05-27T18:37:33.502Z,14.63
2018-05-27T18:40:04.314Z,13.87
2018-05-27T18:42:35.207Z,14.83
2018-05-27T18:45:05.567Z,16.03
2018-05-27T18:47:36.525Z,15.03
2018-05-27T18:50:06.860Z,17.53
2018-05-27T18:52:36.707Z,17.87
2018-05-27T18:55:07.020Z,14.17
2018-05-27T18:57:36.919Z,13.77
2018-05-27T19:00:07.620Z,17.00
2018-05-27T19:02:37.758Z,13.77
2018-05-27T19:05:07.746Z,12.10
2018-05-27T19:07:38.325Z,14.63
2018-05-27T19:10:08.622Z,13.73
2018-05-27T19:12:38.889Z,20.43
2018-05-27T19:15:09.191Z,18.37
2018-05-27T19:17:40.098Z,13.77
2018-05-27T19:20:10.613Z,14.13
2018-05-27T19:22:40.940Z,15.73
2018-05-27T19:25:11.611Z,17.20
2018-05-27T19:27:41.986Z,15.57
2018-05-27T19:30:12.783Z,15.33
2018-05-27T19:32:43.364Z,16.90
2018-05-27T19:35:14.051Z,16.23
2018-05-27T19:37:44.467Z,17.53
2018-05-27T19:40:14.870Z,16.93
2018-05-27T19:42:45.741Z,16.30
2018-05-27T19:45:16.642Z,15.13
2018-05-27T19:47:47.097Z,23.43
2018-05-27T19:50:17.791Z,14.87
2018-05-27T19:52:47.965Z,17.43
2018-05-27T19:55:18.423Z,15.90
2018-05-27T19:57:48.915Z,17.60
2018-05-27T20:00:19.250Z,12.80
2018-05-27T20:02:49.077Z,15.37
2018-05-27T20:05:18.875Z,17.00
2018-05-27T20:07:49.091Z,15.17
2018-05-27T20:10:19.692Z,12.60
2018-05-27T20:12:49.962Z,16.50
2018-05-27T20:15:20.301Z,15.10
2018-05-27T20:17:51.028Z,16.27
2018-05-27T20:20:21.987Z,14.57
2018-05-27T20:22:52.349Z,15.53
2018-05-27T20:25:22.137Z,16.07
2018-05-27T20:27:52.346Z,16.93
2018-05-27T20:30:22.794Z,17.93
2018-05-27T20:32:53.163Z,18.13
2018-05-27T20:35:23.549Z,14.40
2018-05-27T20:37:54.150Z,15.07
2018-05-27T20:40:24.672Z,15.63
2018-05-27T20:42:55.202Z,15.80
2018-05-27T20:45:26.445Z,19.87
2018-05-27T20:47:56.984Z,13.87
2018-05-27T20:50:27.473Z,13.73
2018-05-27T20:52:58.682Z,18.13
2018-05-27T20:55:28.862Z,15.47
2018-05-27T20:57:59.235Z,16.87
2018-05-27T21:00:29.476Z,13.63
2018-05-27T21:03:00.312Z,17.93
2018-05-27T21:05:30.550Z,17.17
2018-05-27T21:08:01.143Z,15.63
2018-05-27T21:10:31.384Z,17.37
2018-05-27T21:13:01.703Z,14.23
2018-05-27T21:15:32.423Z,12.80
2018-05-27T21:18:03.386Z,15.10
2018-05-27T21:20:33.932Z,16.60
2018-05-27T21:23:04.083Z,15.10
2018-05-27T21:25:34.476Z,14.83
2018-05-27T21:28:04.387Z,21.77
2018-05-27T21:30:35.259Z,17.30
2018-05-27T21:33:06.140Z,17.43
2018-05-27T21:35:36.548Z,15.07
2018-05-27T21:38:06.630Z,19.37
2018-05-27T21:40:36.966Z,16.83
2018-05-27T21:43:07.417Z,19.87
2018-05-27T21:45:37.770Z,17.87
2018-05-27T21:48:08.126Z,16.90
2018-05-27T21:50:39.305Z,21.50
2018-05-27T21:53:09.512Z,15.40
2018-05-27T21:55:39.250Z,17.40
2018-05-27T21:58:09.444Z,20.17
2018-05-27T22:00:39.421Z,15.20
2018-05-27T22:03:09.808Z,22.90
2018-05-27T22:05:40.101Z,20.50
2018-05-27T22:08:10.176Z,21.53
2018-05-27T22:10:40.962Z,17.43
2018-05-27T22:13:11.338Z,23.07
2018-05-27T22:15:42.009Z,19.40
2018-05-27T22:18:12.746Z,17.50
2018-05-27T22:20:43.061Z,18.60
2018-05-27T22:23:13.279Z,19.10
2018-05-27T22:25:43.303Z,16.97
2018-05-27T22:28:13.893Z,14.40
2018-05-27T22:30:44.257Z,17.60
2018-05-27T22:33:14.906Z,19.90
2018-05-27T22:35:45.329Z,15.60
2018-05-27T22:38:15.645Z,22.03
2018-05-27T22:40:46.142Z,16.53
2018-05-27T22:43:16.576Z,15.93
2018-05-27T22:45:46.835Z,17.13
2018-05-27T22:48:17.314Z,15.67
2018-05-27T22:50:47.998Z,25.50
2018-05-27T22:53:18.181Z,15.97
2018-05-27T22:55:48.007Z,17.90
2018-05-27T22:58:18.197Z,13.33
2018-05-27T23:00:48.448Z,17.80
2018-05-27T23:03:18.238Z,23.97
2018-05-27T23:05:48.804Z,22.37
2018-05-27T23:08:19.350Z,15.80
2018-05-27T23:10:50.501Z,18.47
2018-05-27T23:13:20.955Z,15.83
2018-05-27T23:15:51.431Z,14.23
2018-05-27T23:18:21.902Z,18.77
2018-05-27T23:20:52.334Z,20.47
2018-05-27T23:23:22.187Z,15.60
2018-05-27T23:25:52.507Z,16.33
2018-05-27T23:28:22.892Z,19.53
2018-05-27T23:30:53.355Z,20.23
2018-05-27T23:33:23.740Z,19.33
2018-05-27T23:35:54.105Z,18.80
2018-05-27T23:38:24.007Z,15.83
2018-05-27T23:40:54.597Z,22.17
2018-05-27T23:43:24.831Z,15.10
2018-05-27T23:45:55.295Z,16.97
2018-05-27T23:48:25.557Z,17.87
2018-05-27T23:50:56.020Z,18.60
2018-05-27T23:53:26.317Z,20.90
2018-05-27T23:55:56.779Z,13.90
2018-05-27T23:58:27.423Z,18.10
